Sign-in with your pilot id or email, or register

ICAO: GMMN Name / Country: Aéroport de Casablanca - Mohamed V / Morocco
Latitude: 33.3675 Longitude: -7.58997
Total Arrivals:
Strict Standards: Non-static method AirportData::getarrflights() should not be called statically, assuming $this from incompatible context in /var/www/customers/vh-7192/web/home/phpvms/core/templates/airport_info.tpl on line 18
1
Total Departures:
Strict Standards: Non-static method AirportData::getdeptflights() should not be called statically, assuming $this from incompatible context in /var/www/customers/vh-7192/web/home/phpvms/core/templates/airport_info.tpl on line 21
1
Latest Arrival: MTA5PM (GOOY-GMMN) Tibor Berces Latest Departure: MTA5PM (GMMN-DAAG) Tibor Berces
Metar: GMMN 172230Z 01008KT CAVOK 21/20 Q1017 NOSIG
More info

Charts for GMMN


NOTAM


Warning: file_get_contents(http://api.vateud.net/notams/GMMN.json): failed to open stream: Redirection limit reached, aborting in /var/www/customers/vh-7192/web/home/phpvms/core/common/NOTAMSData.class.php on line 18

Warning: Invalid argument supplied for foreach() in /var/www/customers/vh-7192/web/home/phpvms/core/common/NOTAMSData.class.php on line 22

Aéroport de Casablanca - Mohamed V